sensor_id;sensor_type;location;lat;lon;timestamp;pressure;altitude;pressure_sealevel;temperature
20848;BMP180;10584;50.854;12.902;2024-01-27T00:00:22;99300.00;;;2.90
20848;BMP180;10584;50.854;12.902;2024-01-27T00:05:43;99312.00;;;2.90
20848;BMP180;10584;50.854;12.902;2024-01-27T00:11:05;99314.00;;;2.80
20848;BMP180;10584;50.854;12.902;2024-01-27T00:16:26;99316.00;;;2.80
20848;BMP180;10584;50.854;12.902;2024-01-27T00:21:48;99320.00;;;2.90
20848;BMP180;10584;50.854;12.902;2024-01-27T00:27:09;99328.00;;;2.90
20848;BMP180;10584;50.854;12.902;2024-01-27T00:32:40;99332.00;;;2.90
20848;BMP180;10584;50.854;12.902;2024-01-27T00:38:07;99344.00;;;2.90
20848;BMP180;10584;50.854;12.902;2024-01-27T00:43:35;99342.00;;;2.90
20848;BMP180;10584;50.854;12.902;2024-01-27T00:48:57;99343.00;;;2.90
20848;BMP180;10584;50.854;12.902;2024-01-27T00:54:18;99346.00;;;2.90
20848;BMP180;10584;50.854;12.902;2024-01-27T00:59:40;99345.00;;;2.80
20848;BMP180;10584;50.854;12.902;2024-01-27T01:05:02;99354.00;;;2.90
20848;BMP180;10584;50.854;12.902;2024-01-27T01:10:25;99363.00;;;2.90
20848;BMP180;10584;50.854;12.902;2024-01-27T01:15:51;99371.00;;;2.80
20848;BMP180;10584;50.854;12.902;2024-01-27T01:21:19;99369.00;;;2.80
20848;BMP180;10584;50.854;12.902;2024-01-27T01:26:42;99370.00;;;2.90
20848;BMP180;10584;50.854;12.902;2024-01-27T01:32:07;99382.00;;;2.80
20848;BMP180;10584;50.854;12.902;2024-01-27T01:37:38;99382.00;;;2.80
20848;BMP180;10584;50.854;12.902;2024-01-27T01:43:03;99384.00;;;2.70
20848;BMP180;10584;50.854;12.902;2024-01-27T01:48:30;99380.00;;;2.70
20848;BMP180;10584;50.854;12.902;2024-01-27T01:53:58;99383.00;;;2.70
20848;BMP180;10584;50.854;12.902;2024-01-27T01:59:20;99398.00;;;2.70
20848;BMP180;10584;50.854;12.902;2024-01-27T02:04:45;99405.00;;;2.60
20848;BMP180;10584;50.854;12.902;2024-01-27T02:10:16;99417.00;;;2.50
20848;BMP180;10584;50.854;12.902;2024-01-27T02:15:38;99406.00;;;2.50
20848;BMP180;10584;50.854;12.902;2024-01-27T02:20:59;99403.00;;;2.40
20848;BMP180;10584;50.854;12.902;2024-01-27T02:26:23;99399.00;;;2.40
20848;BMP180;10584;50.854;12.902;2024-01-27T02:31:51;99397.00;;;2.40
20848;BMP180;10584;50.854;12.902;2024-01-27T02:37:19;99410.00;;;2.30
20848;BMP180;10584;50.854;12.902;2024-01-27T02:42:44;99406.00;;;2.30
20848;BMP180;10584;50.854;12.902;2024-01-27T02:48:06;99391.00;;;2.20
20848;BMP180;10584;50.854;12.902;2024-01-27T02:53:28;99396.00;;;2.20
20848;BMP180;10584;50.854;12.902;2024-01-27T02:58:54;99386.00;;;2.10
20848;BMP180;10584;50.854;12.902;2024-01-27T03:04:20;99386.00;;;2.10
20848;BMP180;10584;50.854;12.902;2024-01-27T03:09:43;99395.00;;;2.00
20848;BMP180;10584;50.854;12.902;2024-01-27T03:15:05;99387.00;;;2.00
20848;BMP180;10584;50.854;12.902;2024-01-27T03:20:27;99417.00;;;1.90
20848;BMP180;10584;50.854;12.902;2024-01-27T03:25:50;99400.00;;;1.80
20848;BMP180;10584;50.854;12.902;2024-01-27T03:31:11;99405.00;;;1.70
20848;BMP180;10584;50.854;12.902;2024-01-27T03:36:38;99424.00;;;1.70
20848;BMP180;10584;50.854;12.902;2024-01-27T03:42:04;99427.00;;;1.80
20848;BMP180;10584;50.854;12.902;2024-01-27T03:47:25;99415.00;;;1.70
20848;BMP180;10584;50.854;12.902;2024-01-27T03:53:11;99432.00;;;1.60
20848;BMP180;10584;50.854;12.902;2024-01-27T03:58:35;99442.00;;;1.70
20848;BMP180;10584;50.854;12.902;2024-01-27T04:04:08;99442.00;;;1.60
20848;BMP180;10584;50.854;12.902;2024-01-27T04:09:31;99456.00;;;1.70
20848;BMP180;10584;50.854;12.902;2024-01-27T04:14:53;99459.00;;;1.60
20848;BMP180;10584;50.854;12.902;2024-01-27T04:20:14;99468.00;;;1.50
20848;BMP180;10584;50.854;12.902;2024-01-27T04:25:36;99464.00;;;1.40
20848;BMP180;10584;50.854;12.902;2024-01-27T04:30:57;99475.00;;;1.50
20848;BMP180;10584;50.854;12.902;2024-01-27T04:36:28;99467.00;;;1.40
20848;BMP180;10584;50.854;12.902;2024-01-27T04:41:53;99470.00;;;1.40
20848;BMP180;10584;50.854;12.902;2024-01-27T04:47:17;99495.00;;;1.30
20848;BMP180;10584;50.854;12.902;2024-01-27T04:52:38;99477.00;;;1.40
20848;BMP180;10584;50.854;12.902;2024-01-27T04:58:02;99485.00;;;1.30
20848;BMP180;10584;50.854;12.902;2024-01-27T05:03:23;99487.00;;;1.30
20848;BMP180;10584;50.854;12.902;2024-01-27T05:08:50;99486.00;;;1.30
20848;BMP180;10584;50.854;12.902;2024-01-27T05:14:13;99493.00;;;1.30
20848;BMP180;10584;50.854;12.902;2024-01-27T05:19:34;99500.00;;;1.30
20848;BMP180;10584;50.854;12.902;2024-01-27T05:24:56;99496.00;;;1.30
20848;BMP180;10584;50.854;12.902;2024-01-27T05:30:18;99494.00;;;1.20
20848;BMP180;10584;50.854;12.902;2024-01-27T05:35:39;99496.00;;;1.30
20848;BMP180;10584;50.854;12.902;2024-01-27T05:41:02;99504.00;;;1.20
20848;BMP180;10584;50.854;12.902;2024-01-27T05:46:24;99511.00;;;1.10
20848;BMP180;10584;50.854;12.902;2024-01-27T05:51:45;99515.00;;;1.10
20848;BMP180;10584;50.854;12.902;2024-01-27T05:57:07;99526.00;;;1.20
20848;BMP180;10584;50.854;12.902;2024-01-27T06:02:32;99525.00;;;1.10
20848;BMP180;10584;50.854;12.902;2024-01-27T06:07:56;99532.00;;;1.20
20848;BMP180;10584;50.854;12.902;2024-01-27T06:13:18;99532.00;;;1.20
20848;BMP180;10584;50.854;12.902;2024-01-27T06:18:39;99532.00;;;1.20
20848;BMP180;10584;50.854;12.902;2024-01-27T06:24:01;99539.00;;;1.20
20848;BMP180;10584;50.854;12.902;2024-01-27T06:29:45;99540.00;;;1.20
20848;BMP180;10584;50.854;12.902;2024-01-27T06:35:07;99542.00;;;1.20
20848;BMP180;10584;50.854;12.902;2024-01-27T06:40:29;99528.00;;;1.20
20848;BMP180;10584;50.854;12.902;2024-01-27T06:45:50;99547.00;;;1.30
20848;BMP180;10584;50.854;12.902;2024-01-27T06:51:12;99572.00;;;1.30
20848;BMP180;10584;50.854;12.902;2024-01-27T06:56:34;99560.00;;;1.40
20848;BMP180;10584;50.854;12.902;2024-01-27T07:01:55;99580.00;;;1.40
20848;BMP180;10584;50.854;12.902;2024-01-27T07:07:17;99588.00;;;1.50
20848;BMP180;10584;50.854;12.902;2024-01-27T07:12:40;99593.00;;;1.50
20848;BMP180;10584;50.854;12.902;2024-01-27T07:18:01;99608.00;;;1.40
20848;BMP180;10584;50.854;12.902;2024-01-27T07:23:23;99624.00;;;1.40
20848;BMP180;10584;50.854;12.902;2024-01-27T07:28:44;99621.00;;;1.50
20848;BMP180;10584;50.854;12.902;2024-01-27T07:34:06;99634.00;;;1.40
20848;BMP180;10584;50.854;12.902;2024-01-27T07:39:28;99631.00;;;1.30
20848;BMP180;10584;50.854;12.902;2024-01-27T07:44:49;99632.00;;;1.40
20848;BMP180;10584;50.854;12.902;2024-01-27T07:50:11;99630.00;;;1.40
20848;BMP180;10584;50.854;12.902;2024-01-27T07:55:32;99638.00;;;1.40
20848;BMP180;10584;50.854;12.902;2024-01-27T08:00:54;99648.00;;;1.50
20848;BMP180;10584;50.854;12.902;2024-01-27T08:06:19;99648.00;;;1.60
20848;BMP180;10584;50.854;12.902;2024-01-27T08:11:40;99650.00;;;1.70
20848;BMP180;10584;50.854;12.902;2024-01-27T08:17:02;99649.00;;;1.70
20848;BMP180;10584;50.854;12.902;2024-01-27T08:22:27;99649.00;;;1.80
20848;BMP180;10584;50.854;12.902;2024-01-27T08:27:48;99641.00;;;1.80
20848;BMP180;10584;50.854;12.902;2024-01-27T08:33:10;99647.00;;;1.90
20848;BMP180;10584;50.854;12.902;2024-01-27T08:38:32;99646.00;;;2.00
20848;BMP180;10584;50.854;12.902;2024-01-27T08:43:54;99665.00;;;2.10
20848;BMP180;10584;50.854;12.902;2024-01-27T08:49:15;99674.00;;;2.20
20848;BMP180;10584;50.854;12.902;2024-01-27T08:54:37;99668.00;;;2.30
20848;BMP180;10584;50.854;12.902;2024-01-27T08:59:58;99675.00;;;2.40
20848;BMP180;10584;50.854;12.902;2024-01-27T09:05:20;99687.00;;;2.50
20848;BMP180;10584;50.854;12.902;2024-01-27T09:10:42;99695.00;;;2.70
20848;BMP180;10584;50.854;12.902;2024-01-27T09:16:03;99708.00;;;3.00
20848;BMP180;10584;50.854;12.902;2024-01-27T09:21:25;99705.00;;;3.10
20848;BMP180;10584;50.854;12.902;2024-01-27T09:26:50;99700.00;;;3.10
20848;BMP180;10584;50.854;12.902;2024-01-27T09:32:12;99701.00;;;3.20
20848;BMP180;10584;50.854;12.902;2024-01-27T09:37:34;99727.00;;;3.30
20848;BMP180;10584;50.854;12.902;2024-01-27T09:42:59;99728.00;;;3.50
20848;BMP180;10584;50.854;12.902;2024-01-27T09:48:21;99716.00;;;3.60
20848;BMP180;10584;50.854;12.902;2024-01-27T09:53:42;99730.00;;;3.60
20848;BMP180;10584;50.854;12.902;2024-01-27T09:59:05;99717.00;;;3.70
20848;BMP180;10584;50.854;12.902;2024-01-27T10:04:27;99742.00;;;3.90
20848;BMP180;10584;50.854;12.902;2024-01-27T10:09:50;99738.00;;;4.10
20848;BMP180;10584;50.854;12.902;2024-01-27T10:15:21;99733.00;;;4.10
20848;BMP180;10584;50.854;12.902;2024-01-27T10:20:43;99721.00;;;4.30
20848;BMP180;10584;50.854;12.902;2024-01-27T10:26:08;99722.00;;;4.30
20848;BMP180;10584;50.854;12.902;2024-01-27T10:31:33;99727.00;;;4.50
20848;BMP180;10584;50.854;12.902;2024-01-27T10:36:54;99704.00;;;4.60
20848;BMP180;10584;50.854;12.902;2024-01-27T10:42:17;99713.00;;;4.70
20848;BMP180;10584;50.854;12.902;2024-01-27T10:47:41;99711.00;;;4.80
20848;BMP180;10584;50.854;12.902;2024-01-27T10:53:05;99725.00;;;5.10
20848;BMP180;10584;50.854;12.902;2024-01-27T10:58:31;99727.00;;;5.10
20848;BMP180;10584;50.854;12.902;2024-01-27T11:03:57;99727.00;;;5.20
20848;BMP180;10584;50.854;12.902;2024-01-27T11:09:19;99736.00;;;5.00
20848;BMP180;10584;50.854;12.902;2024-01-27T11:14:42;99737.00;;;5.30
20848;BMP180;10584;50.854;12.902;2024-01-27T11:20:07;99758.00;;;5.40
20848;BMP180;10584;50.854;12.902;2024-01-27T11:25:32;99751.00;;;5.40
20848;BMP180;10584;50.854;12.902;2024-01-27T11:31:04;99758.00;;;5.50
20848;BMP180;10584;50.854;12.902;2024-01-27T11:36:27;99762.00;;;5.60
20848;BMP180;10584;50.854;12.902;2024-01-27T11:42:09;99761.00;;;5.90
20848;BMP180;10584;50.854;12.902;2024-01-27T11:47:33;99760.00;;;5.80
20848;BMP180;10584;50.854;12.902;2024-01-27T11:52:56;99761.00;;;5.90
20848;BMP180;10584;50.854;12.902;2024-01-27T11:58:32;99772.00;;;6.10
20848;BMP180;10584;50.854;12.902;2024-01-27T12:03:56;99772.00;;;6.20
20848;BMP180;10584;50.854;12.902;2024-01-27T12:09:19;99780.00;;;6.20
20848;BMP180;10584;50.854;12.902;2024-01-27T12:14:45;99777.00;;;6.00
20848;BMP180;10584;50.854;12.902;2024-01-27T12:20:15;99779.00;;;6.30
20848;BMP180;10584;50.854;12.902;2024-01-27T12:25:39;99781.00;;;6.40
20848;BMP180;10584;50.854;12.902;2024-01-27T12:31:06;99786.00;;;6.20
20848;BMP180;10584;50.854;12.902;2024-01-27T12:36:29;99775.00;;;6.30
20848;BMP180;10584;50.854;12.902;2024-01-27T12:41:52;99786.00;;;6.40
20848;BMP180;10584;50.854;12.902;2024-01-27T12:47:15;99783.00;;;6.50
20848;BMP180;10584;50.854;12.902;2024-01-27T12:52:41;99778.00;;;6.50
20848;BMP180;10584;50.854;12.902;2024-01-27T12:58:11;99791.00;;;6.70
20848;BMP180;10584;50.854;12.902;2024-01-27T13:03:38;99785.00;;;6.50
20848;BMP180;10584;50.854;12.902;2024-01-27T13:09:06;99788.00;;;6.80
20848;BMP180;10584;50.854;12.902;2024-01-27T13:14:30;99781.00;;;6.70
20848;BMP180;10584;50.854;12.902;2024-01-27T13:19:53;99778.00;;;6.70
20848;BMP180;10584;50.854;12.902;2024-01-27T13:25:16;99788.00;;;6.70
20848;BMP180;10584;50.854;12.902;2024-01-27T13:30:39;99778.00;;;6.80
20848;BMP180;10584;50.854;12.902;2024-01-27T13:36:02;99778.00;;;6.80
20848;BMP180;10584;50.854;12.902;2024-01-27T13:41:24;99773.00;;;6.90
20848;BMP180;10584;50.854;12.902;2024-01-27T13:46:47;99770.00;;;7.20
20848;BMP180;10584;50.854;12.902;2024-01-27T13:52:09;99769.00;;;7.20
20848;BMP180;10584;50.854;12.902;2024-01-27T13:57:30;99779.00;;;7.10
20848;BMP180;10584;50.854;12.902;2024-01-27T14:02:52;99779.00;;;7.00
20848;BMP180;10584;50.854;12.902;2024-01-27T14:08:14;99782.00;;;6.80
20848;BMP180;10584;50.854;12.902;2024-01-27T14:13:36;99780.00;;;6.90
20848;BMP180;10584;50.854;12.902;2024-01-27T14:18:58;99782.00;;;6.70
20848;BMP180;10584;50.854;12.902;2024-01-27T14:24:20;99784.00;;;6.70
20848;BMP180;10584;50.854;12.902;2024-01-27T14:29:42;99777.00;;;6.50
20848;BMP180;10584;50.854;12.902;2024-01-27T14:35:04;99778.00;;;6.70
20848;BMP180;10584;50.854;12.902;2024-01-27T14:40:28;99792.00;;;6.40
20848;BMP180;10584;50.854;12.902;2024-01-27T14:45:50;99812.00;;;6.40
20848;BMP180;10584;50.854;12.902;2024-01-27T14:51:12;99817.00;;;6.10
20848;BMP180;10584;50.854;12.902;2024-01-27T14:56:34;99835.00;;;5.80
20848;BMP180;10584;50.854;12.902;2024-01-27T15:01:56;99839.00;;;5.80
20848;BMP180;10584;50.854;12.902;2024-01-27T15:07:21;99845.00;;;5.90
20848;BMP180;10584;50.854;12.902;2024-01-27T15:12:43;99847.00;;;5.70
20848;BMP180;10584;50.854;12.902;2024-01-27T15:18:08;99842.00;;;5.60
20848;BMP180;10584;50.854;12.902;2024-01-27T15:23:30;99850.00;;;5.40
20848;BMP180;10584;50.854;12.902;2024-01-27T15:28:52;99850.00;;;5.40
20848;BMP180;10584;50.854;12.902;2024-01-27T15:34:14;99850.00;;;5.20
20848;BMP180;10584;50.854;12.902;2024-01-27T15:39:37;99842.00;;;5.20
20848;BMP180;10584;50.854;12.902;2024-01-27T15:44:59;99855.00;;;5.10
20848;BMP180;10584;50.854;12.902;2024-01-27T15:50:21;99868.00;;;4.90
20848;BMP180;10584;50.854;12.902;2024-01-27T15:55:47;99867.00;;;4.70
20848;BMP180;10584;50.854;12.902;2024-01-27T16:01:09;99870.00;;;4.60
20848;BMP180;10584;50.854;12.902;2024-01-27T16:06:31;99879.00;;;4.60
20848;BMP180;10584;50.854;12.902;2024-01-27T16:11:54;99895.00;;;4.50
20848;BMP180;10584;50.854;12.902;2024-01-27T16:17:17;99901.00;;;4.40
20848;BMP180;10584;50.854;12.902;2024-01-27T16:22:39;99897.00;;;4.30
20848;BMP180;10584;50.854;12.902;2024-01-27T16:28:01;99899.00;;;4.10
20848;BMP180;10584;50.854;12.902;2024-01-27T16:33:27;99901.00;;;4.10
20848;BMP180;10584;50.854;12.902;2024-01-27T16:39:04;99902.00;;;4.00
20848;BMP180;10584;50.854;12.902;2024-01-27T16:44:29;99899.00;;;3.90
20848;BMP180;10584;50.854;12.902;2024-01-27T16:49:55;99912.00;;;3.80
20848;BMP180;10584;50.854;12.902;2024-01-27T16:55:28;99915.00;;;3.70
20848;BMP180;10584;50.854;12.902;2024-01-27T17:00:49;99901.00;;;3.60
20848;BMP180;10584;50.854;12.902;2024-01-27T17:06:11;99917.00;;;3.50
20848;BMP180;10584;50.854;12.902;2024-01-27T17:11:55;99922.00;;;3.40
20848;BMP180;10584;50.854;12.902;2024-01-27T17:17:17;99922.00;;;3.30
20848;BMP180;10584;50.854;12.902;2024-01-27T17:22:39;99925.00;;;3.10
20848;BMP180;10584;50.854;12.902;2024-01-27T17:28:00;99927.00;;;3.00
20848;BMP180;10584;50.854;12.902;2024-01-27T17:33:22;99928.00;;;2.90
20848;BMP180;10584;50.854;12.902;2024-01-27T17:38:43;99940.00;;;2.60
20848;BMP180;10584;50.854;12.902;2024-01-27T17:44:05;99948.00;;;2.50
20848;BMP180;10584;50.854;12.902;2024-01-27T17:49:27;99951.00;;;2.20
20848;BMP180;10584;50.854;12.902;2024-01-27T17:54:49;99932.00;;;2.10
20848;BMP180;10584;50.854;12.902;2024-01-27T18:00:14;99930.00;;;1.90
20848;BMP180;10584;50.854;12.902;2024-01-27T18:05:36;99920.00;;;1.70
20848;BMP180;10584;50.854;12.902;2024-01-27T18:10:58;99925.00;;;1.60
20848;BMP180;10584;50.854;12.902;2024-01-27T18:16:19;99923.00;;;1.60
20848;BMP180;10584;50.854;12.902;2024-01-27T18:21:41;99919.00;;;1.50
20848;BMP180;10584;50.854;12.902;2024-01-27T18:27:03;99935.00;;;1.40
20848;BMP180;10584;50.854;12.902;2024-01-27T18:32:25;99938.00;;;1.40
20848;BMP180;10584;50.854;12.902;2024-01-27T18:37:47;99939.00;;;1.30
20848;BMP180;10584;50.854;12.902;2024-01-27T18:43:30;99949.00;;;1.10
20848;BMP180;10584;50.854;12.902;2024-01-27T18:48:52;99950.00;;;1.10
20848;BMP180;10584;50.854;12.902;2024-01-27T18:54:13;99949.00;;;1.10
20848;BMP180;10584;50.854;12.902;2024-01-27T18:59:38;99953.00;;;1.10
20848;BMP180;10584;50.854;12.902;2024-01-27T19:04:59;99963.00;;;1.00
20848;BMP180;10584;50.854;12.902;2024-01-27T19:10:25;99969.00;;;1.00
20848;BMP180;10584;50.854;12.902;2024-01-27T19:15:47;99969.00;;;1.00
20848;BMP180;10584;50.854;12.902;2024-01-27T19:21:09;99972.00;;;1.00
20848;BMP180;10584;50.854;12.902;2024-01-27T19:26:32;99968.00;;;1.00
20848;BMP180;10584;50.854;12.902;2024-01-27T19:31:53;99971.00;;;0.90
20848;BMP180;10584;50.854;12.902;2024-01-27T19:37:15;99953.00;;;0.90
20848;BMP180;10584;50.854;12.902;2024-01-27T19:42:37;99966.00;;;1.00
20848;BMP180;10584;50.854;12.902;2024-01-27T19:47:59;99969.00;;;0.90
20848;BMP180;10584;50.854;12.902;2024-01-27T19:53:21;99980.00;;;1.00
20848;BMP180;10584;50.854;12.902;2024-01-27T19:58:42;99981.00;;;0.90
20848;BMP180;10584;50.854;12.902;2024-01-27T20:04:04;99990.00;;;0.90
20848;BMP180;10584;50.854;12.902;2024-01-27T20:09:25;99995.00;;;0.90
20848;BMP180;10584;50.854;12.902;2024-01-27T20:14:50;99994.00;;;0.90
20848;BMP180;10584;50.854;12.902;2024-01-27T20:20:12;99992.00;;;0.90
20848;BMP180;10584;50.854;12.902;2024-01-27T20:25:34;99996.00;;;0.80
20848;BMP180;10584;50.854;12.902;2024-01-27T20:30:55;100005.00;;;0.70
20848;BMP180;10584;50.854;12.902;2024-01-27T20:36:17;100008.00;;;0.70
20848;BMP180;10584;50.854;12.902;2024-01-27T20:41:38;100013.00;;;0.70
20848;BMP180;10584;50.854;12.902;2024-01-27T20:47:00;100007.00;;;0.70
20848;BMP180;10584;50.854;12.902;2024-01-27T20:52:21;100020.00;;;0.70
20848;BMP180;10584;50.854;12.902;2024-01-27T20:57:43;100032.00;;;0.60
20848;BMP180;10584;50.854;12.902;2024-01-27T21:03:05;100023.00;;;0.50
20848;BMP180;10584;50.854;12.902;2024-01-27T21:08:26;100022.00;;;0.50
20848;BMP180;10584;50.854;12.902;2024-01-27T21:13:50;100018.00;;;0.40
20848;BMP180;10584;50.854;12.902;2024-01-27T21:19:11;100022.00;;;0.40
20848;BMP180;10584;50.854;12.902;2024-01-27T21:24:33;100029.00;;;0.50
20848;BMP180;10584;50.854;12.902;2024-01-27T21:29:54;100023.00;;;0.40
20848;BMP180;10584;50.854;12.902;2024-01-27T21:35:16;100019.00;;;0.40
20848;BMP180;10584;50.854;12.902;2024-01-27T21:40:37;99999.00;;;0.30
20848;BMP180;10584;50.854;12.902;2024-01-27T21:46:03;100012.00;;;0.30
20848;BMP180;10584;50.854;12.902;2024-01-27T21:51:28;100007.00;;;0.40
20848;BMP180;10584;50.854;12.902;2024-01-27T21:56:51;100003.00;;;0.40
20848;BMP180;10584;50.854;12.902;2024-01-27T22:02:13;100000.00;;;0.30
20848;BMP180;10584;50.854;12.902;2024-01-27T22:07:35;99986.00;;;0.30
20848;BMP180;10584;50.854;12.902;2024-01-27T22:12:56;99998.00;;;0.40
20848;BMP180;10584;50.854;12.902;2024-01-27T22:18:18;99993.00;;;0.30
20848;BMP180;10584;50.854;12.902;2024-01-27T22:23:40;99985.00;;;0.30
20848;BMP180;10584;50.854;12.902;2024-01-27T22:29:01;99982.00;;;0.10
20848;BMP180;10584;50.854;12.902;2024-01-27T22:34:23;99990.00;;;-0.20
20848;BMP180;10584;50.854;12.902;2024-01-27T22:39:45;99967.00;;;-0.20
20848;BMP180;10584;50.854;12.902;2024-01-27T22:45:07;99974.00;;;-0.40
20848;BMP180;10584;50.854;12.902;2024-01-27T22:50:29;99983.00;;;-0.40
20848;BMP180;10584;50.854;12.902;2024-01-27T22:55:51;99966.00;;;-0.40
20848;BMP180;10584;50.854;12.902;2024-01-27T23:01:12;99982.00;;;-0.50
20848;BMP180;10584;50.854;12.902;2024-01-27T23:06:37;99979.00;;;-0.60
20848;BMP180;10584;50.854;12.902;2024-01-27T23:11:59;99958.00;;;-0.60
20848;BMP180;10584;50.854;12.902;2024-01-27T23:17:20;99964.00;;;-0.60
20848;BMP180;10584;50.854;12.902;2024-01-27T23:22:42;99960.00;;;-0.60
20848;BMP180;10584;50.854;12.902;2024-01-27T23:28:04;99968.00;;;-0.60
20848;BMP180;10584;50.854;12.902;2024-01-27T23:33:26;99962.00;;;-0.60
20848;BMP180;10584;50.854;12.902;2024-01-27T23:38:48;99956.00;;;-0.50
20848;BMP180;10584;50.854;12.902;2024-01-27T23:44:09;99959.00;;;-0.50
20848;BMP180;10584;50.854;12.902;2024-01-27T23:49:31;99947.00;;;-0.50
20848;BMP180;10584;50.854;12.902;2024-01-27T23:54:53;99937.00;;;-0.50
